createdAt,value
2019-01-31T00:00:22.385Z,2.10
2019-01-31T00:03:43.532Z,2.20
2019-01-31T00:06:16.525Z,2.50
2019-01-31T00:08:51.233Z,2.40
2019-01-31T00:11:42.151Z,2.30
2019-01-31T00:14:32.710Z,2.30
2019-01-31T00:17:11.664Z,2.10
2019-01-31T00:19:49.083Z,2.10
2019-01-31T00:22:57.827Z,2.10
2019-01-31T00:26:10.777Z,2.10
2019-01-31T00:28:47.525Z,2.20
2019-01-31T00:31:43.739Z,2.10
2019-01-31T00:34:41.417Z,2.00
2019-01-31T00:37:15.138Z,2.00
2019-01-31T00:40:24.643Z,2.00
2019-01-31T00:43:11.039Z,2.30
2019-01-31T00:45:49.443Z,2.20
2019-01-31T00:49:02.453Z,2.20
2019-01-31T00:51:53.006Z,2.30
2019-01-31T00:55:07.918Z,2.40
2019-01-31T00:57:49.914Z,2.30
2019-01-31T01:00:34.920Z,2.40
2019-01-31T01:03:40.712Z,2.40
2019-01-31T01:06:33.449Z,2.20
2019-01-31T01:09:21.301Z,2.20
2019-01-31T01:12:14.998Z,2.20
2019-01-31T01:14:58.099Z,2.40
2019-01-31T01:17:49.401Z,2.50
2019-01-31T01:21:04.851Z,2.40
2019-01-31T01:23:56.418Z,2.30
2019-01-31T01:26:58.593Z,2.30
2019-01-31T01:29:34.133Z,2.50
2019-01-31T01:32:13.642Z,2.40
2019-01-31T01:35:09.808Z,2.20
2019-01-31T01:38:36.971Z,2.20
2019-01-31T01:41:41.307Z,2.30
2019-01-31T01:44:34.944Z,2.10
2019-01-31T01:47:19.604Z,2.30
2019-01-31T01:50:23.515Z,2.30
2019-01-31T01:53:15.729Z,2.20
2019-01-31T01:56:28.567Z,2.20
2019-01-31T01:59:58.919Z,2.10
2019-01-31T02:02:55.906Z,2.10
2019-01-31T02:05:49.354Z,2.00
2019-01-31T02:08:49.649Z,2.10
2019-01-31T02:12:10.883Z,2.10
2019-01-31T02:14:57.377Z,1.90
2019-01-31T02:17:51.153Z,2.00
2019-01-31T02:20:46.532Z,2.00
2019-01-31T02:23:42.059Z,1.90
2019-01-31T02:26:37.198Z,1.80
2019-01-31T02:29:26.358Z,1.90
2019-01-31T02:32:41.658Z,2.20
2019-01-31T02:35:42.148Z,2.10
2019-01-31T02:38:33.966Z,1.90
2019-01-31T02:41:49.127Z,2.10
2019-01-31T02:44:51.706Z,2.20
2019-01-31T02:47:32.712Z,2.30
2019-01-31T02:50:34.634Z,2.30
2019-01-31T02:53:33.462Z,2.20
2019-01-31T02:56:51.828Z,2.30
2019-01-31T02:59:41.922Z,2.20
2019-01-31T03:02:50.285Z,2.10
2019-01-31T03:05:31.022Z,2.10
2019-01-31T03:08:30.807Z,2.10
2019-01-31T03:11:20.232Z,2.00
2019-01-31T03:14:09.441Z,2.00
2019-01-31T03:16:59.346Z,2.00
2019-01-31T03:19:36.008Z,2.20
2019-01-31T03:23:03.327Z,2.10
2019-01-31T03:26:16.427Z,2.10
2019-01-31T03:29:10.067Z,2.00
2019-01-31T03:31:52.220Z,2.20
2019-01-31T03:35:11.028Z,2.10
2019-01-31T03:38:01.798Z,2.10
2019-01-31T03:41:00.723Z,2.20
2019-01-31T03:44:06.668Z,2.20
2019-01-31T03:46:47.039Z,2.10
2019-01-31T03:49:55.203Z,2.00
2019-01-31T03:53:19.868Z,2.10
2019-01-31T03:56:32.055Z,1.90
2019-01-31T03:59:27.402Z,2.00
2019-01-31T04:02:23.111Z,1.90
2019-01-31T04:05:21.129Z,1.90
2019-01-31T04:07:48.639Z,1.90
2019-01-31T04:10:19.076Z,1.70
2019-01-31T04:12:44.545Z,1.80
2019-01-31T04:15:12.261Z,1.70
2019-01-31T04:17:39.645Z,1.70
2019-01-31T04:20:07.494Z,1.60
2019-01-31T04:22:34.594Z,1.60
2019-01-31T04:25:02.184Z,1.60
2019-01-31T04:27:29.321Z,1.60
2019-01-31T04:29:56.608Z,1.60
2019-01-31T04:32:23.711Z,1.60
2019-01-31T04:34:50.770Z,1.60
2019-01-31T04:37:17.918Z,1.60
2019-01-31T04:39:45.064Z,1.60
2019-01-31T04:42:12.050Z,1.70
2019-01-31T04:44:39.157Z,1.60
2019-01-31T04:47:06.188Z,1.70
2019-01-31T04:49:33.162Z,1.70
2019-01-31T04:52:00.537Z,1.60
2019-01-31T04:54:27.664Z,1.60
2019-01-31T04:56:54.800Z,1.60
2019-01-31T04:59:21.883Z,1.60
2019-01-31T05:01:48.878Z,1.70
2019-01-31T05:04:16.469Z,1.70
2019-01-31T05:06:43.688Z,1.70
2019-01-31T05:09:10.691Z,1.60
2019-01-31T05:11:37.913Z,1.60
2019-01-31T05:14:05.105Z,1.60
2019-01-31T05:16:32.346Z,1.70
2019-01-31T05:18:59.344Z,1.70
2019-01-31T05:21:26.398Z,1.70
2019-01-31T05:23:53.699Z,1.70
2019-01-31T05:26:20.697Z,1.60
2019-01-31T05:28:47.701Z,1.70
2019-01-31T05:31:14.708Z,1.70
2019-01-31T05:33:41.685Z,1.70
2019-01-31T05:36:08.650Z,1.70
2019-01-31T05:38:36.044Z,1.70
2019-01-31T05:41:03.125Z,1.80
2019-01-31T05:43:30.238Z,1.80
2019-01-31T05:45:57.204Z,1.70
2019-01-31T05:48:25.367Z,1.70
2019-01-31T05:50:52.325Z,1.70
2019-01-31T05:53:19.437Z,1.70
2019-01-31T05:55:46.421Z,1.70
2019-01-31T05:58:14.152Z,1.70
2019-01-31T06:00:41.587Z,1.70
2019-01-31T06:03:09.047Z,1.70
2019-01-31T06:05:38.282Z,1.70
2019-01-31T06:08:05.369Z,1.70
2019-01-31T06:10:33.621Z,1.70
2019-01-31T06:13:01.134Z,1.70
2019-01-31T06:15:28.119Z,1.60
2019-01-31T06:17:55.955Z,1.70
2019-01-31T06:20:23.812Z,1.70
2019-01-31T06:22:51.167Z,1.60
2019-01-31T06:25:18.497Z,1.60
2019-01-31T06:27:46.154Z,1.70
2019-01-31T06:30:14.816Z,1.70
2019-01-31T06:32:41.892Z,1.70
2019-01-31T06:35:09.340Z,1.60
2019-01-31T06:37:36.431Z,1.70
2019-01-31T06:40:04.677Z,1.70
2019-01-31T06:42:31.807Z,1.70
2019-01-31T06:44:59.928Z,1.70
2019-01-31T06:47:26.919Z,1.70
2019-01-31T06:49:53.922Z,1.70
2019-01-31T06:52:21.018Z,1.70
2019-01-31T06:54:48.089Z,1.80
2019-01-31T06:57:15.460Z,1.80
2019-01-31T06:59:42.914Z,1.80
2019-01-31T07:02:09.942Z,1.70
2019-01-31T07:04:37.382Z,2.00
2019-01-31T07:07:04.903Z,2.00
2019-01-31T07:09:32.540Z,1.90
2019-01-31T07:11:59.633Z,1.80
2019-01-31T07:14:27.018Z,1.70
2019-01-31T07:16:54.435Z,1.80
2019-01-31T07:19:21.505Z,1.70
2019-01-31T07:21:48.496Z,2.00
2019-01-31T07:24:15.455Z,1.90
2019-01-31T07:26:42.576Z,1.90
2019-01-31T07:29:09.856Z,2.00
2019-01-31T07:31:36.939Z,2.00
2019-01-31T07:34:04.155Z,2.00
2019-01-31T07:36:31.463Z,2.00
2019-01-31T07:38:58.840Z,2.00
2019-01-31T07:41:26.958Z,2.10
2019-01-31T07:43:54.274Z,2.10
2019-01-31T07:46:21.250Z,2.10
2019-01-31T07:48:48.642Z,2.10
2019-01-31T07:51:16.350Z,2.00
2019-01-31T07:53:43.416Z,2.10
2019-01-31T07:56:10.510Z,2.10
2019-01-31T07:58:37.591Z,2.00
2019-01-31T08:01:05.011Z,2.10
2019-01-31T08:03:32.474Z,2.20
2019-01-31T08:05:59.873Z,2.10
2019-01-31T08:08:26.843Z,2.10
2019-01-31T08:10:53.836Z,2.10
2019-01-31T08:13:21.079Z,2.10
2019-01-31T08:15:48.330Z,2.00
2019-01-31T08:18:15.515Z,2.00
2019-01-31T08:20:42.583Z,2.00
2019-01-31T08:23:09.676Z,2.00
2019-01-31T08:25:37.437Z,2.00
2019-01-31T08:28:05.565Z,2.00
2019-01-31T08:30:37.653Z,2.10
2019-01-31T08:33:04.146Z,2.10
2019-01-31T08:35:31.307Z,2.10
2019-01-31T08:37:59.645Z,2.10
2019-01-31T08:40:27.151Z,2.10
2019-01-31T08:42:54.235Z,2.20
2019-01-31T08:45:21.270Z,2.30
2019-01-31T08:47:48.534Z,2.40
2019-01-31T08:50:17.738Z,2.60
2019-01-31T08:52:45.171Z,2.50
2019-01-31T08:55:12.370Z,2.70
2019-01-31T08:57:39.799Z,2.70
2019-01-31T09:00:10.138Z,2.70
2019-01-31T09:02:37.147Z,2.80
2019-01-31T09:05:04.963Z,2.90
2019-01-31T09:07:32.250Z,2.90
2019-01-31T09:09:59.210Z,2.90
2019-01-31T09:12:27.228Z,2.90
2019-01-31T09:14:54.404Z,3.00
2019-01-31T09:17:21.370Z,2.90
2019-01-31T09:19:48.525Z,2.90
2019-01-31T09:22:31.487Z,2.90
2019-01-31T09:25:27.654Z,2.90
2019-01-31T09:28:04.563Z,2.90
2019-01-31T09:31:27.811Z,3.10
2019-01-31T09:34:40.116Z,3.00
2019-01-31T09:37:41.088Z,3.00
2019-01-31T09:40:33.830Z,3.00
2019-01-31T09:43:08.460Z,3.00
2019-01-31T09:46:03.930Z,3.20
2019-01-31T09:48:48.879Z,3.10
2019-01-31T09:51:48.739Z,3.10
2019-01-31T09:54:31.051Z,3.10
2019-01-31T09:57:36.487Z,3.10
2019-01-31T10:00:32.694Z,3.20
2019-01-31T10:03:46.558Z,3.10
2019-01-31T10:06:41.254Z,3.00
2019-01-31T10:09:31.936Z,3.00
2019-01-31T10:12:38.313Z,3.00
2019-01-31T10:15:42.564Z,3.10
2019-01-31T10:18:33.808Z,3.20
2019-01-31T10:21:37.831Z,3.10
2019-01-31T10:24:37.550Z,3.20
2019-01-31T10:27:13.954Z,3.10
2019-01-31T10:29:57.725Z,3.20
2019-01-31T10:32:40.630Z,3.40
2019-01-31T10:35:33.483Z,3.30
2019-01-31T10:38:17.320Z,3.30
2019-01-31T10:40:56.857Z,3.40
2019-01-31T10:43:41.125Z,3.40
2019-01-31T10:46:14.709Z,3.50
2019-01-31T10:49:20.266Z,3.50
2019-01-31T10:52:34.953Z,3.50
2019-01-31T10:55:33.323Z,3.40
2019-01-31T10:58:47.807Z,3.30
2019-01-31T11:02:05.330Z,3.40
2019-01-31T11:05:06.410Z,3.40
2019-01-31T11:08:20.501Z,3.40
2019-01-31T11:11:34.814Z,3.40
2019-01-31T11:14:28.094Z,3.50
2019-01-31T11:17:27.691Z,3.60
2019-01-31T11:20:20.512Z,3.50
2019-01-31T11:23:18.580Z,3.50
2019-01-31T11:26:20.181Z,3.60
2019-01-31T11:29:19.116Z,3.40
2019-01-31T11:32:19.383Z,3.40
2019-01-31T11:35:13.442Z,3.40
2019-01-31T11:38:09.753Z,3.50
2019-01-31T11:41:17.900Z,3.40
2019-01-31T11:44:09.932Z,3.30
2019-01-31T11:47:11.213Z,3.20
2019-01-31T11:49:52.242Z,3.30
2019-01-31T11:52:36.084Z,3.30
2019-01-31T11:55:20.326Z,3.50
2019-01-31T11:58:28.285Z,3.60
2019-01-31T12:00:55.283Z,3.70
2019-01-31T12:03:22.996Z,3.70
2019-01-31T12:05:51.222Z,3.60
2019-01-31T12:08:18.544Z,3.70
2019-01-31T12:10:45.692Z,3.60
2019-01-31T12:13:23.268Z,3.70
2019-01-31T12:15:42.320Z,3.70
2019-01-31T12:18:10.638Z,3.70
2019-01-31T12:20:37.750Z,3.80
2019-01-31T12:23:05.188Z,3.80
2019-01-31T12:25:32.822Z,4.00
2019-01-31T12:27:59.972Z,3.90
2019-01-31T12:30:28.251Z,3.80
2019-01-31T12:32:55.459Z,3.90
2019-01-31T12:35:22.692Z,3.90
2019-01-31T12:37:50.103Z,3.90
2019-01-31T12:40:17.734Z,4.00
2019-01-31T12:42:45.349Z,3.90
2019-01-31T12:45:14.765Z,3.90
2019-01-31T12:47:41.865Z,3.80
2019-01-31T12:50:12.340Z,3.80
2019-01-31T12:52:39.625Z,3.80
2019-01-31T12:55:07.217Z,4.00
2019-01-31T12:57:34.577Z,4.10
2019-01-31T13:00:01.836Z,4.10
2019-01-31T13:02:28.874Z,4.10
2019-01-31T13:04:55.866Z,4.00
2019-01-31T13:07:23.448Z,4.00
2019-01-31T13:09:50.555Z,4.00
2019-01-31T13:12:17.915Z,4.00
2019-01-31T13:14:45.056Z,4.00
2019-01-31T13:17:14.497Z,4.10
2019-01-31T13:19:42.542Z,4.20
2019-01-31T13:22:10.284Z,4.20
2019-01-31T13:24:37.494Z,4.00
2019-01-31T13:27:05.641Z,4.00
2019-01-31T13:29:32.614Z,3.90
2019-01-31T13:31:59.998Z,4.00
2019-01-31T13:34:27.422Z,3.90
2019-01-31T13:36:54.805Z,3.80
2019-01-31T13:39:22.434Z,3.80
2019-01-31T13:41:49.701Z,3.80
2019-01-31T13:44:16.849Z,3.90
2019-01-31T13:46:44.100Z,4.30
2019-01-31T13:49:11.477Z,4.30
2019-01-31T13:51:38.733Z,4.30
2019-01-31T13:54:06.051Z,4.10
2019-01-31T13:56:44.941Z,4.00
2019-01-31T13:59:02.752Z,4.00
2019-01-31T14:01:30.011Z,4.00
2019-01-31T14:03:57.056Z,4.00
2019-01-31T14:06:24.677Z,4.00
2019-01-31T14:08:51.866Z,4.30
2019-01-31T14:11:25.168Z,4.30
2019-01-31T14:13:52.623Z,4.30
2019-01-31T14:16:19.957Z,4.60
2019-01-31T14:18:47.143Z,4.60
2019-01-31T14:21:14.274Z,4.50
2019-01-31T14:23:41.332Z,4.40
2019-01-31T14:26:09.847Z,4.40
2019-01-31T14:28:36.981Z,4.70
2019-01-31T14:31:04.321Z,4.60
2019-01-31T14:33:31.455Z,4.50
2019-01-31T14:36:00.079Z,4.40
2019-01-31T14:38:27.401Z,4.30
2019-01-31T14:40:54.451Z,4.40
2019-01-31T14:43:23.095Z,4.30
2019-01-31T14:45:50.276Z,4.20
2019-01-31T14:48:17.534Z,4.10
2019-01-31T14:50:44.743Z,4.10
2019-01-31T14:53:11.759Z,4.00
2019-01-31T14:55:38.921Z,4.00
2019-01-31T14:58:07.726Z,3.90
2019-01-31T15:00:35.208Z,4.00
2019-01-31T15:03:02.239Z,4.00
2019-01-31T15:05:30.786Z,4.10
2019-01-31T15:07:58.072Z,4.10
2019-01-31T15:10:26.404Z,4.00
2019-01-31T15:12:53.610Z,3.90
2019-01-31T15:15:20.763Z,3.90
2019-01-31T15:17:48.076Z,4.00
2019-01-31T15:20:20.787Z,4.00
2019-01-31T15:22:47.880Z,4.20
2019-01-31T15:25:15.234Z,4.50
2019-01-31T15:27:42.413Z,4.30
2019-01-31T15:30:11.935Z,4.30
2019-01-31T15:32:39.143Z,4.20
2019-01-31T15:35:07.043Z,4.10
2019-01-31T15:37:34.385Z,4.10
2019-01-31T15:40:01.664Z,4.00
2019-01-31T15:42:28.687Z,3.90
2019-01-31T15:44:56.188Z,4.00
2019-01-31T15:47:23.407Z,3.80
2019-01-31T15:49:50.481Z,3.70
2019-01-31T15:52:17.642Z,3.70
2019-01-31T15:54:44.862Z,3.60
2019-01-31T15:57:16.833Z,3.60
2019-01-31T15:59:40.995Z,3.50
2019-01-31T16:02:08.404Z,3.40
2019-01-31T16:04:35.515Z,3.40
2019-01-31T16:07:03.247Z,3.30
2019-01-31T16:09:30.272Z,3.30
2019-01-31T16:11:59.726Z,3.20
2019-01-31T16:14:26.560Z,3.10
2019-01-31T16:16:53.562Z,3.20
2019-01-31T16:19:20.646Z,3.20
2019-01-31T16:21:48.157Z,3.10
2019-01-31T16:24:16.135Z,3.10
2019-01-31T16:26:43.497Z,3.10
2019-01-31T16:29:10.527Z,3.10
2019-01-31T16:31:37.646Z,3.00
2019-01-31T16:34:04.863Z,3.10
2019-01-31T16:36:31.971Z,3.10
2019-01-31T16:38:59.332Z,3.10
2019-01-31T16:41:26.325Z,3.20
2019-01-31T16:43:53.314Z,3.10
2019-01-31T16:46:23.250Z,3.10
2019-01-31T16:48:50.474Z,3.10
2019-01-31T16:51:17.745Z,3.00
2019-01-31T16:53:45.637Z,3.00
2019-01-31T16:56:12.727Z,3.00
2019-01-31T16:58:39.834Z,2.90
2019-01-31T17:01:07.410Z,2.90
2019-01-31T17:03:34.522Z,2.80
2019-01-31T17:06:01.707Z,2.70
2019-01-31T17:08:28.806Z,2.90
2019-01-31T17:10:56.422Z,2.80
2019-01-31T17:13:23.610Z,2.80
2019-01-31T17:15:51.221Z,2.90
2019-01-31T17:18:18.210Z,2.80
2019-01-31T17:20:45.886Z,2.80
2019-01-31T17:23:12.999Z,2.90
2019-01-31T17:25:40.595Z,2.80
2019-01-31T17:28:07.700Z,2.80
2019-01-31T17:30:36.180Z,2.80
2019-01-31T17:33:03.743Z,2.80
2019-01-31T17:35:30.907Z,2.70
2019-01-31T17:37:58.000Z,2.70
2019-01-31T17:40:27.416Z,2.60
2019-01-31T17:42:54.517Z,2.60
2019-01-31T17:45:30.506Z,2.60
2019-01-31T17:47:53.094Z,2.70
2019-01-31T17:50:20.359Z,2.80
2019-01-31T17:52:47.459Z,3.00
2019-01-31T17:55:16.618Z,2.90
2019-01-31T17:57:43.624Z,2.90
2019-01-31T18:00:32.092Z,2.80
2019-01-31T18:02:59.267Z,2.70
2019-01-31T18:05:26.238Z,2.60
2019-01-31T18:07:53.338Z,2.70
2019-01-31T18:10:20.563Z,2.60
2019-01-31T18:12:47.511Z,2.50
2019-01-31T18:15:14.838Z,2.60
2019-01-31T18:17:42.113Z,2.50
2019-01-31T18:20:11.402Z,2.60
2019-01-31T18:22:38.669Z,2.40
2019-01-31T18:25:06.601Z,2.50
2019-01-31T18:27:33.852Z,2.30
2019-01-31T18:30:01.133Z,2.40
2019-01-31T18:32:28.118Z,2.60
2019-01-31T18:34:55.671Z,2.60
2019-01-31T18:37:22.702Z,2.60
2019-01-31T18:39:49.670Z,2.70
2019-01-31T18:42:16.658Z,2.60
2019-01-31T18:44:44.059Z,2.60
2019-01-31T18:47:11.100Z,2.50
2019-01-31T18:49:38.268Z,2.40
2019-01-31T18:52:05.502Z,2.50
2019-01-31T18:54:32.739Z,2.30
2019-01-31T18:56:59.732Z,2.20
2019-01-31T18:59:27.009Z,2.20
2019-01-31T19:01:54.226Z,2.20
2019-01-31T19:04:21.295Z,2.20
2019-01-31T19:06:48.711Z,2.20
2019-01-31T19:09:15.689Z,2.10
2019-01-31T19:11:42.665Z,2.10
2019-01-31T19:14:10.406Z,2.10
2019-01-31T19:16:37.443Z,2.10
2019-01-31T19:19:04.659Z,2.10
2019-01-31T19:21:31.733Z,2.10
2019-01-31T19:23:58.886Z,2.10
2019-01-31T19:26:26.028Z,2.00
2019-01-31T19:28:54.114Z,2.30
2019-01-31T19:31:21.438Z,2.30
2019-01-31T19:33:48.409Z,2.20
2019-01-31T19:36:15.469Z,2.10
2019-01-31T19:38:43.464Z,2.10
2019-01-31T19:41:10.691Z,2.00
2019-01-31T19:43:38.024Z,2.00
2019-01-31T19:46:15.788Z,2.10
2019-01-31T19:48:33.984Z,1.90
2019-01-31T19:51:02.076Z,2.00
2019-01-31T19:53:29.096Z,2.00
2019-01-31T19:55:56.426Z,1.90
2019-01-31T19:58:24.646Z,2.00
2019-01-31T20:00:51.803Z,2.00
2019-01-31T20:03:18.891Z,2.00
2019-01-31T20:05:46.057Z,1.90
2019-01-31T20:08:13.263Z,1.80
2019-01-31T20:10:40.493Z,1.70
2019-01-31T20:13:07.926Z,1.80
2019-01-31T20:15:35.431Z,1.70
2019-01-31T20:18:03.194Z,1.80
2019-01-31T20:20:30.197Z,1.70
2019-01-31T20:22:57.898Z,1.70
2019-01-31T20:25:25.902Z,1.80
2019-01-31T20:27:52.998Z,1.80
2019-01-31T20:30:27.895Z,1.70
2019-01-31T20:32:56.125Z,1.70
2019-01-31T20:35:23.626Z,1.70
2019-01-31T20:37:50.956Z,1.70
2019-01-31T20:40:20.825Z,1.60
2019-01-31T20:42:48.030Z,1.60
2019-01-31T20:45:15.578Z,1.50
2019-01-31T20:47:42.798Z,1.50
2019-01-31T20:50:13.413Z,1.40
2019-01-31T20:52:41.551Z,1.50
2019-01-31T20:55:10.247Z,1.70
2019-01-31T20:57:37.341Z,1.60
2019-01-31T21:00:08.031Z,1.50
2019-01-31T21:02:35.302Z,1.50
2019-01-31T21:05:03.055Z,1.30
2019-01-31T21:07:34.020Z,1.30
2019-01-31T21:10:01.127Z,1.30
2019-01-31T21:12:28.627Z,1.20
2019-01-31T21:14:55.727Z,1.20
2019-01-31T21:17:22.712Z,1.10
2019-01-31T21:19:49.794Z,1.00
2019-01-31T21:22:17.026Z,1.10
2019-01-31T21:24:44.111Z,1.10
2019-01-31T21:27:12.307Z,1.00
2019-01-31T21:29:39.459Z,0.90
2019-01-31T21:32:06.500Z,0.90
2019-01-31T21:34:33.601Z,0.90
2019-01-31T21:37:00.667Z,0.80
2019-01-31T21:39:27.808Z,0.80
2019-01-31T21:41:54.843Z,0.90
2019-01-31T21:44:22.013Z,1.00
2019-01-31T21:46:48.999Z,0.90
2019-01-31T21:49:16.159Z,0.90
2019-01-31T21:51:43.520Z,0.90
2019-01-31T21:54:10.626Z,0.80
2019-01-31T21:56:37.730Z,0.80
2019-01-31T21:59:04.826Z,0.80
2019-01-31T22:01:32.261Z,0.90
2019-01-31T22:03:59.386Z,0.80
2019-01-31T22:06:26.644Z,0.70
2019-01-31T22:08:53.629Z,0.80
2019-01-31T22:11:20.895Z,0.80
2019-01-31T22:13:47.880Z,0.80
2019-01-31T22:16:14.846Z,0.90
2019-01-31T22:18:42.407Z,1.10
2019-01-31T22:21:09.863Z,1.20
2019-01-31T22:23:37.064Z,1.10
2019-01-31T22:26:04.202Z,1.20
2019-01-31T22:28:31.339Z,1.10
2019-01-31T22:30:58.342Z,1.10
2019-01-31T22:33:25.714Z,1.00
2019-01-31T22:35:53.707Z,1.00
2019-01-31T22:38:21.012Z,1.00
2019-01-31T22:40:47.989Z,1.00
2019-01-31T22:43:15.102Z,1.00
2019-01-31T22:45:42.507Z,1.00
2019-01-31T22:48:09.951Z,0.70
2019-01-31T22:50:37.288Z,0.80
2019-01-31T22:53:04.775Z,0.90
2019-01-31T22:55:32.126Z,0.80
2019-01-31T22:57:59.375Z,0.70
2019-01-31T23:00:49.258Z,0.80
2019-01-31T23:03:17.287Z,0.80
2019-01-31T23:05:45.593Z,0.80
2019-01-31T23:08:12.678Z,0.70
2019-01-31T23:10:40.097Z,0.70
2019-01-31T23:13:07.438Z,0.60
2019-01-31T23:15:34.452Z,0.60
2019-01-31T23:18:01.534Z,0.70
2019-01-31T23:20:29.127Z,0.60
2019-01-31T23:22:56.483Z,0.70
2019-01-31T23:25:23.689Z,0.70
2019-01-31T23:27:50.683Z,0.70
2019-01-31T23:30:17.927Z,0.50
2019-01-31T23:32:44.905Z,0.50
2019-01-31T23:35:13.862Z,0.40
2019-01-31T23:37:41.078Z,0.30
2019-01-31T23:40:08.473Z,0.30
2019-01-31T23:42:35.563Z,0.30
2019-01-31T23:45:05.614Z,0.20
2019-01-31T23:47:32.851Z,0.10
2019-01-31T23:49:59.827Z,0.20
2019-01-31T23:52:27.358Z,0.10
2019-01-31T23:54:54.732Z,0.10
2019-01-31T23:57:21.743Z,0.10
2019-01-31T23:59:48.771Z,0.10
